createdAt,value
2017-12-06T00:00:31.855Z,3.28
2017-12-06T00:01:31.911Z,3.24
2017-12-06T00:02:31.937Z,3.31
2017-12-06T00:03:31.982Z,3.34
2017-12-06T00:04:32.039Z,3.31
2017-12-06T00:05:32.107Z,3.24
2017-12-06T00:06:32.105Z,3.24
2017-12-06T00:07:32.144Z,3.20
2017-12-06T00:08:32.186Z,3.18
2017-12-06T00:09:32.244Z,3.24
2017-12-06T00:10:32.272Z,3.21
2017-12-06T00:11:32.313Z,3.24
2017-12-06T00:12:34.166Z,3.30
2017-12-06T00:13:32.404Z,3.28
2017-12-06T00:14:32.436Z,3.33
2017-12-06T00:15:32.480Z,3.28
2017-12-06T00:16:32.524Z,3.28
2017-12-06T00:17:32.580Z,3.34
2017-12-06T00:18:32.606Z,3.30
2017-12-06T00:19:32.664Z,3.25
2017-12-06T00:20:32.690Z,3.30
2017-12-06T00:21:32.729Z,3.20
2017-12-06T00:22:32.786Z,3.20
2017-12-06T00:23:32.816Z,3.20
2017-12-06T00:24:32.875Z,3.15
2017-12-06T00:25:32.898Z,3.16
2017-12-06T00:26:32.939Z,3.13
2017-12-06T00:27:32.992Z,3.16
2017-12-06T00:28:33.023Z,3.00
2017-12-06T00:29:33.066Z,3.02
2017-12-06T00:30:33.136Z,3.02
2017-12-06T00:31:33.147Z,3.02
2017-12-06T00:32:33.193Z,2.92
2017-12-06T00:33:33.231Z,2.94
2017-12-06T00:34:33.272Z,2.97
2017-12-06T00:35:33.333Z,2.85
2017-12-06T00:36:33.359Z,2.92
2017-12-06T00:37:33.416Z,2.87
2017-12-06T00:38:33.439Z,2.88
2017-12-06T00:39:34.164Z,2.91
2017-12-06T00:40:33.523Z,2.87
2017-12-06T00:41:33.564Z,2.88
2017-12-06T00:42:33.624Z,2.87
2017-12-06T00:43:33.647Z,2.87
2017-12-06T00:44:33.690Z,2.87
2017-12-06T00:45:33.730Z,2.85
2017-12-06T00:46:33.797Z,2.88
2017-12-06T00:47:33.815Z,2.81
2017-12-06T00:48:33.854Z,2.77
2017-12-06T00:49:33.896Z,2.87
2017-12-06T00:50:33.937Z,2.81
2017-12-06T00:51:33.996Z,2.79
2017-12-06T00:52:34.020Z,2.87
2017-12-06T00:53:34.062Z,2.73
2017-12-06T00:54:34.127Z,2.84
2017-12-06T00:55:34.144Z,2.77
2017-12-06T00:56:34.188Z,2.73
2017-12-06T00:57:34.229Z,2.81
2017-12-06T00:58:34.270Z,2.89
2017-12-06T00:59:34.326Z,2.91
2017-12-06T01:00:34.358Z,2.88
2017-12-06T01:01:34.394Z,2.89
2017-12-06T01:02:34.451Z,2.91
2017-12-06T01:03:34.479Z,2.92
2017-12-06T01:04:34.516Z,2.92
2017-12-06T01:05:34.576Z,2.98
2017-12-06T01:06:34.601Z,2.98
2017-12-06T01:07:34.656Z,2.87
2017-12-06T01:08:34.685Z,2.94
2017-12-06T01:09:34.725Z,2.89
2017-12-06T01:10:34.769Z,2.85
2017-12-06T01:11:34.806Z,2.91
2017-12-06T01:12:34.864Z,2.81
2017-12-06T01:13:34.890Z,2.79
2017-12-06T01:14:34.931Z,2.79
2017-12-06T01:15:34.974Z,2.79
2017-12-06T01:16:35.014Z,2.70
2017-12-06T01:17:35.076Z,2.84
2017-12-06T01:18:35.099Z,2.79
2017-12-06T01:19:35.139Z,2.76
2017-12-06T01:20:35.180Z,2.79
2017-12-06T01:21:35.223Z,2.82
2017-12-06T01:22:35.277Z,2.76
2017-12-06T01:23:35.308Z,2.89
2017-12-06T01:24:35.357Z,2.87
2017-12-06T01:25:35.387Z,2.84
2017-12-06T01:26:35.445Z,2.87
2017-12-06T01:27:35.471Z,2.76
2017-12-06T01:28:35.511Z,2.91
2017-12-06T01:29:35.554Z,2.91
2017-12-06T01:30:35.600Z,2.88
2017-12-06T01:31:35.655Z,2.87
2017-12-06T01:32:35.677Z,2.85
2017-12-06T01:33:35.720Z,2.85
2017-12-06T01:34:35.766Z,2.92
2017-12-06T01:35:35.804Z,2.89
2017-12-06T01:36:35.862Z,2.84
2017-12-06T01:37:35.890Z,2.85
2017-12-06T01:38:35.926Z,2.88
2017-12-06T01:39:35.980Z,2.85
2017-12-06T01:40:36.017Z,2.88
2017-12-06T01:41:36.070Z,2.89
2017-12-06T01:42:36.099Z,2.89
2017-12-06T01:43:36.134Z,2.87
2017-12-06T01:44:36.178Z,2.76
2017-12-06T01:45:36.221Z,2.82
2017-12-06T01:46:36.277Z,2.85
2017-12-06T01:47:36.300Z,2.79
2017-12-06T01:48:36.349Z,2.76
2017-12-06T01:49:36.385Z,2.82
2017-12-06T01:50:36.426Z,2.85
2017-12-06T01:51:36.482Z,2.79
2017-12-06T01:52:36.509Z,2.76
2017-12-06T01:53:36.550Z,2.79
2017-12-06T01:54:36.592Z,2.79
2017-12-06T01:55:36.632Z,2.74
2017-12-06T01:56:36.690Z,2.71
2017-12-06T01:57:36.734Z,2.67
2017-12-06T01:58:36.765Z,2.67
2017-12-06T01:59:36.799Z,2.64
2017-12-06T02:00:36.839Z,2.66
2017-12-06T02:01:36.882Z,2.71
2017-12-06T02:02:36.939Z,2.74
2017-12-06T02:03:36.964Z,2.69
2017-12-06T02:04:37.007Z,2.79
2017-12-06T02:05:37.047Z,2.67
2017-12-06T02:06:37.088Z,2.73
2017-12-06T02:07:37.146Z,2.77
2017-12-06T02:08:37.190Z,2.74
2017-12-06T02:09:37.219Z,2.69
2017-12-06T02:10:37.258Z,2.67
2017-12-06T02:11:37.294Z,2.64
2017-12-06T02:12:37.356Z,2.67
2017-12-06T02:13:37.406Z,2.66
2017-12-06T02:14:37.422Z,2.73
2017-12-06T02:15:37.461Z,2.66
2017-12-06T02:16:37.502Z,2.67
2017-12-06T02:17:37.543Z,2.66
2017-12-06T02:18:37.604Z,2.67
2017-12-06T02:19:37.625Z,2.69
2017-12-06T02:20:37.670Z,2.71
2017-12-06T02:21:37.708Z,2.74
2017-12-06T02:22:37.750Z,2.79
2017-12-06T02:23:37.810Z,2.77
2017-12-06T02:24:37.832Z,2.74
2017-12-06T02:25:37.874Z,2.77
2017-12-06T02:26:37.920Z,2.79
2017-12-06T02:27:37.956Z,2.84
2017-12-06T02:28:38.017Z,2.74
2017-12-06T02:29:38.039Z,2.74
2017-12-06T02:30:38.095Z,2.76
2017-12-06T02:31:38.121Z,2.77
2017-12-06T02:32:38.164Z,2.69
2017-12-06T02:33:38.204Z,2.84
2017-12-06T02:34:38.251Z,2.74
2017-12-06T02:35:38.314Z,2.77
2017-12-06T02:36:38.326Z,2.70
2017-12-06T02:37:38.374Z,2.73
2017-12-06T02:38:38.410Z,2.71
2017-12-06T02:39:38.452Z,2.71
2017-12-06T02:40:38.509Z,2.71
2017-12-06T02:41:38.535Z,2.73
2017-12-06T02:42:38.576Z,2.71
2017-12-06T02:43:38.618Z,2.70
2017-12-06T02:44:38.659Z,2.73
2017-12-06T02:45:38.716Z,2.79
2017-12-06T02:46:38.766Z,2.76
2017-12-06T02:47:38.785Z,2.76
2017-12-06T02:48:38.825Z,2.92
2017-12-06T02:49:38.866Z,2.88
2017-12-06T02:50:38.907Z,2.94
2017-12-06T02:51:38.965Z,2.89
2017-12-06T02:52:38.993Z,2.84
2017-12-06T02:53:39.032Z,2.88
2017-12-06T02:54:39.075Z,2.84
2017-12-06T02:55:39.113Z,2.91
2017-12-06T02:56:39.185Z,2.81
2017-12-06T02:57:39.198Z,2.76
2017-12-06T02:58:39.362Z,2.87
2017-12-06T02:59:39.287Z,2.76
2017-12-06T03:00:39.322Z,2.79
2017-12-06T03:01:39.381Z,2.79
2017-12-06T03:02:39.405Z,2.71
2017-12-06T03:03:39.448Z,2.71
2017-12-06T03:04:39.496Z,2.74
2017-12-06T03:05:39.529Z,2.67
2017-12-06T03:06:39.589Z,2.67
2017-12-06T03:07:39.612Z,2.71
2017-12-06T03:08:39.654Z,2.69
2017-12-06T03:09:39.695Z,2.76
2017-12-06T03:10:39.739Z,2.74
2017-12-06T03:11:39.796Z,2.79
2017-12-06T03:12:39.820Z,2.74
2017-12-06T03:13:39.864Z,2.79
2017-12-06T03:14:39.905Z,2.87
2017-12-06T03:15:39.953Z,2.76
2017-12-06T03:16:40.005Z,2.84
2017-12-06T03:17:40.028Z,2.81
2017-12-06T03:18:40.084Z,2.79
2017-12-06T03:19:40.113Z,2.84
2017-12-06T03:20:40.152Z,2.79
2017-12-06T03:21:40.194Z,2.81
2017-12-06T03:22:40.234Z,2.95
2017-12-06T03:23:40.293Z,2.84
2017-12-06T03:24:40.317Z,2.88
2017-12-06T03:25:40.360Z,2.92
2017-12-06T03:26:40.400Z,2.88
2017-12-06T03:27:40.446Z,2.92
2017-12-06T03:28:40.500Z,2.92
2017-12-06T03:29:40.526Z,2.91
2017-12-06T03:30:40.567Z,2.92
2017-12-06T03:31:40.608Z,2.97
2017-12-06T03:32:40.647Z,2.89
2017-12-06T03:33:40.716Z,2.94
2017-12-06T03:34:40.749Z,2.94
2017-12-06T03:35:40.775Z,2.92
2017-12-06T03:36:40.821Z,2.87
2017-12-06T03:37:40.868Z,2.85
2017-12-06T03:38:40.916Z,2.84
2017-12-06T03:39:40.943Z,2.85
2017-12-06T03:40:40.999Z,2.92
2017-12-06T03:41:41.030Z,2.89
2017-12-06T03:42:41.072Z,2.88
2017-12-06T03:43:41.109Z,2.76
2017-12-06T03:44:41.153Z,2.88
2017-12-06T03:45:41.207Z,2.81
2017-12-06T03:46:41.231Z,2.79
2017-12-06T03:47:41.276Z,2.88
2017-12-06T03:48:41.315Z,2.74
2017-12-06T03:49:41.354Z,2.81
2017-12-06T03:50:41.421Z,2.82
2017-12-06T03:51:41.440Z,2.87
2017-12-06T03:52:41.482Z,2.79
2017-12-06T03:53:41.526Z,2.88
2017-12-06T03:54:41.566Z,2.76
2017-12-06T03:55:41.621Z,2.79
2017-12-06T03:56:41.649Z,2.84
2017-12-06T03:57:41.691Z,2.76
2017-12-06T03:58:41.732Z,2.79
2017-12-06T03:59:41.772Z,2.76
2017-12-06T04:00:41.835Z,2.76
2017-12-06T04:01:41.870Z,2.77
2017-12-06T04:02:41.896Z,2.82
2017-12-06T04:03:41.955Z,2.70
2017-12-06T04:04:41.979Z,2.71
2017-12-06T04:05:42.020Z,2.67
2017-12-06T04:06:42.079Z,2.69
2017-12-06T04:07:42.119Z,2.71
2017-12-06T04:08:42.147Z,2.70
2017-12-06T04:09:42.193Z,2.66
2017-12-06T04:10:42.226Z,2.69
2017-12-06T04:11:42.289Z,2.74
2017-12-06T04:12:42.312Z,2.67
2017-12-06T04:13:42.351Z,2.67
2017-12-06T04:14:42.392Z,2.69
2017-12-06T04:15:42.434Z,2.69
2017-12-06T04:16:42.925Z,2.63
2017-12-06T04:17:42.556Z,2.70
2017-12-06T04:18:42.574Z,2.63
2017-12-06T04:19:42.599Z,2.70
2017-12-06T04:20:42.647Z,2.66
2017-12-06T04:21:42.682Z,2.58
2017-12-06T04:22:42.729Z,2.63
2017-12-06T04:23:42.781Z,2.58
2017-12-06T04:24:43.453Z,2.53
2017-12-06T04:25:42.851Z,2.63
2017-12-06T04:26:42.888Z,2.56
2017-12-06T04:27:42.929Z,2.56
2017-12-06T04:28:42.986Z,2.58
2017-12-06T04:29:43.013Z,2.53
2017-12-06T04:30:43.054Z,2.69
2017-12-06T04:31:43.102Z,2.73
2017-12-06T04:32:43.139Z,2.67
2017-12-06T04:33:43.196Z,2.70
2017-12-06T04:34:43.233Z,2.69
2017-12-06T04:35:43.259Z,2.73
2017-12-06T04:36:43.301Z,2.61
2017-12-06T04:37:43.342Z,2.58
2017-12-06T04:38:43.400Z,2.63
2017-12-06T04:39:43.441Z,2.66
2017-12-06T04:40:43.469Z,2.63
2017-12-06T04:41:43.511Z,2.64
2017-12-06T04:42:43.547Z,2.61
2017-12-06T04:43:43.592Z,2.55
2017-12-06T04:44:43.653Z,2.64
2017-12-06T04:45:43.784Z,2.69
2017-12-06T04:46:43.712Z,2.67
2017-12-06T04:47:43.753Z,2.71
2017-12-06T04:48:43.798Z,2.61
2017-12-06T04:49:43.863Z,2.71
2017-12-06T04:50:43.878Z,2.61
2017-12-06T04:51:43.918Z,2.69
2017-12-06T04:52:43.964Z,2.64
2017-12-06T04:53:44.004Z,2.74
2017-12-06T04:54:44.061Z,2.63
2017-12-06T04:55:44.083Z,2.69
2017-12-06T04:56:44.122Z,2.53
2017-12-06T04:57:44.166Z,2.58
2017-12-06T04:58:44.213Z,2.59
2017-12-06T04:59:44.261Z,2.58
2017-12-06T05:00:44.313Z,2.61
2017-12-06T05:01:44.331Z,2.58
2017-12-06T05:02:44.371Z,2.53
2017-12-06T05:03:44.413Z,2.58
2017-12-06T05:04:44.459Z,2.61
2017-12-06T05:05:44.511Z,2.58
2017-12-06T05:06:44.536Z,2.61
2017-12-06T05:07:44.577Z,2.55
2017-12-06T05:08:44.619Z,2.56
2017-12-06T05:09:44.662Z,2.58
2017-12-06T05:10:44.716Z,2.64
2017-12-06T05:11:44.743Z,2.49
2017-12-06T05:12:44.783Z,2.58
2017-12-06T05:13:44.825Z,2.64
2017-12-06T05:14:44.866Z,2.63
2017-12-06T05:15:44.921Z,2.67
2017-12-06T05:16:44.964Z,2.70
2017-12-06T05:17:44.991Z,2.58
2017-12-06T05:18:45.032Z,2.70
2017-12-06T05:19:45.072Z,2.73
2017-12-06T05:20:45.129Z,2.61
2017-12-06T05:21:45.154Z,2.67
2017-12-06T05:22:45.212Z,2.67
2017-12-06T05:23:45.236Z,2.63
2017-12-06T05:24:45.278Z,2.59
2017-12-06T05:25:45.338Z,2.55
2017-12-06T05:26:45.361Z,2.61
2017-12-06T05:27:45.412Z,2.61
2017-12-06T05:28:45.444Z,2.58
2017-12-06T05:29:45.486Z,2.58
2017-12-06T05:30:45.524Z,2.58
2017-12-06T05:31:45.583Z,2.58
2017-12-06T05:32:45.626Z,2.59
2017-12-06T05:33:45.649Z,2.59
2017-12-06T05:34:45.688Z,2.56
2017-12-06T05:35:45.731Z,2.59
2017-12-06T05:36:45.799Z,2.61
2017-12-06T05:37:45.826Z,2.64
2017-12-06T05:38:45.854Z,2.67
2017-12-06T05:39:45.894Z,2.64
2017-12-06T05:40:45.936Z,2.66
2017-12-06T05:41:45.980Z,2.67
2017-12-06T05:42:46.038Z,2.53
2017-12-06T05:43:46.061Z,2.53
2017-12-06T05:44:46.104Z,2.56
2017-12-06T05:45:46.152Z,2.55
2017-12-06T05:46:46.343Z,2.61
2017-12-06T05:47:46.241Z,2.56
2017-12-06T05:48:46.282Z,2.61
2017-12-06T05:49:46.312Z,2.63
2017-12-06T05:50:46.349Z,2.61
2017-12-06T05:51:46.390Z,2.64
2017-12-06T05:52:46.431Z,2.55
2017-12-06T05:53:46.491Z,2.58
2017-12-06T05:54:46.571Z,2.59
2017-12-06T05:55:46.555Z,2.56
2017-12-06T05:56:46.597Z,2.58
2017-12-06T05:57:46.637Z,2.53
2017-12-06T05:58:46.703Z,2.61
2017-12-06T05:59:46.720Z,2.58
2017-12-06T06:00:46.762Z,2.59
2017-12-06T06:01:46.805Z,2.63
2017-12-06T06:02:46.844Z,2.59
2017-12-06T06:03:46.905Z,2.69
2017-12-06T06:04:46.927Z,2.63
2017-12-06T06:05:46.968Z,2.61
2017-12-06T06:06:47.008Z,2.53
2017-12-06T06:07:47.050Z,2.59
2017-12-06T06:08:47.111Z,2.58
2017-12-06T06:09:47.133Z,2.58
2017-12-06T06:10:47.176Z,2.59
2017-12-06T06:11:47.215Z,2.66
2017-12-06T06:12:47.260Z,2.59
2017-12-06T06:13:47.323Z,2.55
2017-12-06T06:14:47.358Z,2.58
2017-12-06T06:15:47.383Z,2.49
2017-12-06T06:16:47.422Z,2.58
2017-12-06T06:17:47.467Z,2.59
2017-12-06T06:18:47.504Z,2.59
2017-12-06T06:19:47.567Z,2.58
2017-12-06T06:20:47.592Z,2.59
2017-12-06T06:21:47.631Z,2.53
2017-12-06T06:22:47.670Z,2.63
2017-12-06T06:23:47.716Z,2.55
2017-12-06T06:24:47.771Z,2.56
2017-12-06T06:25:47.797Z,2.61
2017-12-06T06:26:47.835Z,2.64
2017-12-06T06:27:47.874Z,2.67
2017-12-06T06:28:47.918Z,2.56
2017-12-06T06:29:47.976Z,2.58
2017-12-06T06:30:48.002Z,2.59
2017-12-06T06:31:48.062Z,2.61
2017-12-06T06:32:48.092Z,2.53
2017-12-06T06:33:48.124Z,2.59
2017-12-06T06:34:48.165Z,2.56
2017-12-06T06:35:48.222Z,2.55
2017-12-06T06:36:48.251Z,2.46
2017-12-06T06:37:48.290Z,2.48
2017-12-06T06:38:48.331Z,2.63
2017-12-06T06:39:48.378Z,2.52
2017-12-06T06:40:48.432Z,2.53
2017-12-06T06:41:48.478Z,2.61
2017-12-06T06:42:48.496Z,2.58
2017-12-06T06:43:48.538Z,2.59
2017-12-06T06:44:48.582Z,2.61
2017-12-06T06:45:48.621Z,2.58
2017-12-06T06:46:48.977Z,2.58
2017-12-06T06:47:48.702Z,2.61
2017-12-06T06:48:48.743Z,2.74
2017-12-06T06:49:48.785Z,2.63
2017-12-06T06:50:48.828Z,2.61
2017-12-06T06:51:48.883Z,2.61
2017-12-06T06:52:48.926Z,2.63
2017-12-06T06:53:48.953Z,2.58
2017-12-06T06:54:48.991Z,2.52
2017-12-06T06:55:49.033Z,2.53
2017-12-06T06:56:49.071Z,2.64
2017-12-06T06:57:49.134Z,2.58
2017-12-06T06:58:49.156Z,2.58
2017-12-06T06:59:49.202Z,2.55
2017-12-06T07:00:49.242Z,2.61
2017-12-06T07:01:49.297Z,2.55
2017-12-06T07:02:49.321Z,2.58
2017-12-06T07:03:49.363Z,2.53
2017-12-06T07:04:49.406Z,2.45
2017-12-06T07:05:49.448Z,2.48
2017-12-06T07:06:49.506Z,2.48
2017-12-06T07:07:49.530Z,2.49
2017-12-06T07:08:49.571Z,2.51
2017-12-06T07:09:49.611Z,2.61
2017-12-06T07:10:49.670Z,2.61
2017-12-06T07:11:49.711Z,2.59
2017-12-06T07:12:49.749Z,2.58
2017-12-06T07:13:49.791Z,2.61
2017-12-06T07:14:49.815Z,2.55
2017-12-06T07:15:49.855Z,2.56
2017-12-06T07:16:49.900Z,2.49
2017-12-06T07:17:49.945Z,2.58
2017-12-06T07:18:50.009Z,2.58
2017-12-06T07:19:50.022Z,2.61
2017-12-06T07:20:50.068Z,2.55
2017-12-06T07:21:50.104Z,2.51
2017-12-06T07:22:50.146Z,2.46
2017-12-06T07:23:50.204Z,2.55
2017-12-06T07:24:50.227Z,2.56
2017-12-06T07:25:50.269Z,2.56
2017-12-06T07:26:50.310Z,2.52
2017-12-06T07:27:50.347Z,2.58
2017-12-06T07:28:50.412Z,2.58
2017-12-06T07:29:50.437Z,2.58
2017-12-06T07:30:50.476Z,2.59
2017-12-06T07:31:50.515Z,2.61
2017-12-06T07:32:50.557Z,2.53
2017-12-06T07:33:50.619Z,2.58
2017-12-06T07:34:50.658Z,2.51
2017-12-06T07:35:50.680Z,2.53
2017-12-06T07:36:50.724Z,2.61
2017-12-06T07:37:50.762Z,2.63
2017-12-06T07:38:50.803Z,2.56
2017-12-06T07:39:50.867Z,2.66
2017-12-06T07:40:50.892Z,2.55
2017-12-06T07:41:50.928Z,2.53
2017-12-06T07:42:50.968Z,2.58
2017-12-06T07:43:51.011Z,2.58
2017-12-06T07:44:51.067Z,2.53
2017-12-06T07:45:51.092Z,2.58
2017-12-06T07:46:51.134Z,2.59
2017-12-06T07:47:51.184Z,2.61
2017-12-06T07:48:51.216Z,2.63
2017-12-06T07:49:51.274Z,2.55
2017-12-06T07:50:51.298Z,2.67
2017-12-06T07:51:51.339Z,2.67
2017-12-06T07:52:51.382Z,2.63
2017-12-06T07:53:51.423Z,2.70
2017-12-06T07:54:51.478Z,2.66
2017-12-06T07:55:51.507Z,2.58
2017-12-06T07:56:51.549Z,2.59
2017-12-06T07:57:51.587Z,2.55
2017-12-06T07:58:51.629Z,2.61
2017-12-06T07:59:51.684Z,2.58
2017-12-06T08:00:51.713Z,2.55
2017-12-06T08:01:51.767Z,2.52
2017-12-06T08:02:51.794Z,2.56
2017-12-06T08:03:51.832Z,2.56
2017-12-06T08:04:51.875Z,2.53
2017-12-06T08:05:51.923Z,2.53
2017-12-06T08:06:51.972Z,2.48
2017-12-06T08:07:51.998Z,2.45
2017-12-06T08:08:52.040Z,2.45
2017-12-06T08:09:52.082Z,2.40
2017-12-06T08:10:52.124Z,2.40
2017-12-06T08:11:52.181Z,2.40
2017-12-06T08:12:52.206Z,2.34
2017-12-06T08:13:52.249Z,2.31
2017-12-06T08:14:52.288Z,2.28
2017-12-06T08:15:52.328Z,2.28
2017-12-06T08:16:52.415Z,2.30
2017-12-06T08:17:52.410Z,2.27
2017-12-06T08:18:52.450Z,2.20
2017-12-06T08:19:52.491Z,2.22
2017-12-06T08:20:52.534Z,2.22
2017-12-06T08:21:52.593Z,2.19
2017-12-06T08:22:52.614Z,2.27
2017-12-06T08:23:52.656Z,2.26
2017-12-06T08:24:52.697Z,2.23
2017-12-06T08:25:52.739Z,2.28
2017-12-06T08:26:52.795Z,2.34
2017-12-06T08:27:52.821Z,2.41
2017-12-06T08:28:52.862Z,2.38
2017-12-06T08:29:52.904Z,2.46
2017-12-06T08:30:52.946Z,2.34
2017-12-06T08:31:53.004Z,2.41
2017-12-06T08:32:53.026Z,2.40
2017-12-06T08:33:53.067Z,2.48
2017-12-06T08:34:53.112Z,2.35
2017-12-06T08:35:53.150Z,2.41
2017-12-06T08:36:53.208Z,2.34
2017-12-06T08:37:53.231Z,2.40
2017-12-06T08:38:53.288Z,2.41
2017-12-06T08:39:53.314Z,2.33
2017-12-06T08:40:53.353Z,2.30
2017-12-06T08:41:53.936Z,2.26
2017-12-06T08:42:53.438Z,2.19
2017-12-06T08:43:53.496Z,2.22
2017-12-06T08:44:53.517Z,2.22
2017-12-06T08:45:53.579Z,2.20
2017-12-06T08:46:53.600Z,2.26
2017-12-06T08:47:53.640Z,2.20
2017-12-06T08:48:53.697Z,2.19
2017-12-06T08:49:53.720Z,2.23
2017-12-06T08:50:54.612Z,2.19
2017-12-06T08:51:53.804Z,2.19
2017-12-06T08:52:53.888Z,2.22
2017-12-06T08:53:53.908Z,2.27
2017-12-06T08:54:53.931Z,2.30
2017-12-06T08:55:53.969Z,2.28
2017-12-06T08:56:54.533Z,2.22
2017-12-06T08:57:54.048Z,2.30
2017-12-06T08:58:54.106Z,2.31
2017-12-06T08:59:54.144Z,2.27
2017-12-06T09:00:54.178Z,2.23
2017-12-06T09:01:54.212Z,2.26
2017-12-06T09:02:54.255Z,2.35
2017-12-06T09:03:54.294Z,2.33
2017-12-06T09:04:54.358Z,2.38
2017-12-06T09:05:54.934Z,2.34
2017-12-06T09:06:54.417Z,2.38
2017-12-06T09:07:54.459Z,2.35
2017-12-06T09:08:54.499Z,2.28
2017-12-06T09:09:54.554Z,2.28
2017-12-06T09:10:54.582Z,2.30
2017-12-06T09:11:54.618Z,2.40
2017-12-06T09:12:54.660Z,2.37
2017-12-06T09:13:54.701Z,2.28
2017-12-06T09:14:54.758Z,2.19
2017-12-06T09:15:54.814Z,2.31
2017-12-06T09:16:54.825Z,2.26
2017-12-06T09:17:54.865Z,2.22
2017-12-06T09:18:55.033Z,2.23
2017-12-06T09:24:43.312Z,2.17
2017-12-06T09:25:43.295Z,2.16
2017-12-06T09:26:43.335Z,2.16
2017-12-06T09:27:43.394Z,2.15
2017-12-06T09:28:43.420Z,2.28
2017-12-06T09:29:43.458Z,2.31
2017-12-06T09:30:43.498Z,2.28
2017-12-06T09:31:43.561Z,2.33
2017-12-06T09:32:43.600Z,2.28
2017-12-06T09:33:43.619Z,2.37
2017-12-06T09:34:43.665Z,2.37
2017-12-06T09:35:43.702Z,2.37
2017-12-06T09:36:43.758Z,2.49
2017-12-06T09:37:43.802Z,2.48
2017-12-06T09:38:43.824Z,2.46
2017-12-06T09:39:43.865Z,2.34
2017-12-06T09:40:43.908Z,2.22
2017-12-06T09:41:43.967Z,2.15
2017-12-06T09:42:43.988Z,2.20
2017-12-06T09:43:44.029Z,2.15
2017-12-06T09:44:44.093Z,2.17
2017-12-06T09:45:44.110Z,2.19
2017-12-06T09:46:44.167Z,2.28
2017-12-06T09:47:44.193Z,2.12
2017-12-06T09:48:44.248Z,2.16
2017-12-06T09:49:44.278Z,2.20
2017-12-06T09:50:44.315Z,2.35
2017-12-06T09:51:44.359Z,2.33
2017-12-06T09:52:44.396Z,2.34
2017-12-06T09:53:44.461Z,2.26
2017-12-06T09:54:44.482Z,2.31
2017-12-06T09:55:44.521Z,2.31
2017-12-06T09:56:44.563Z,2.40
2017-12-06T09:57:44.607Z,2.40
2017-12-06T09:58:44.663Z,2.49
2017-12-06T09:59:44.685Z,2.51
2017-12-06T10:00:44.726Z,2.45
2017-12-06T10:01:44.863Z,2.48
2017-12-06T10:02:44.806Z,2.51
2017-12-06T10:03:44.862Z,2.46
2017-12-06T10:04:44.890Z,2.37
2017-12-06T10:05:44.929Z,2.49
2017-12-06T10:06:44.979Z,2.41
2017-12-06T10:07:45.028Z,2.52
2017-12-06T10:08:45.053Z,2.64
2017-12-06T10:09:45.099Z,2.59
2017-12-06T10:10:45.134Z,2.58
2017-12-06T10:11:45.175Z,2.58
2017-12-06T10:12:45.231Z,2.59
2017-12-06T10:13:45.257Z,2.63
2017-12-06T10:14:45.317Z,2.67
2017-12-06T10:15:45.338Z,2.59
2017-12-06T10:16:45.378Z,2.69
2017-12-06T10:17:45.421Z,2.66
2017-12-06T10:18:45.464Z,2.66
2017-12-06T10:19:45.527Z,2.61
2017-12-06T10:20:45.544Z,2.71
2017-12-06T10:21:45.586Z,2.73
2017-12-06T10:22:45.646Z,2.71
2017-12-06T10:23:45.669Z,2.73
2017-12-06T10:24:45.710Z,2.81
2017-12-06T10:25:45.758Z,2.73
2017-12-06T10:26:45.793Z,2.85
2017-12-06T10:27:45.856Z,2.97
2017-12-06T10:28:45.877Z,2.94
2017-12-06T10:29:45.948Z,2.92
2017-12-06T10:30:45.958Z,2.95
2017-12-06T10:31:45.999Z,2.97
2017-12-06T10:32:46.059Z,2.89
2017-12-06T10:33:46.081Z,3.00
2017-12-06T10:34:46.123Z,3.02
2017-12-06T10:35:46.168Z,2.95
2017-12-06T10:36:46.206Z,2.95
2017-12-06T10:37:46.264Z,3.00
2017-12-06T10:38:46.290Z,3.02
2017-12-06T10:39:46.331Z,3.00
2017-12-06T10:40:47.114Z,3.06
2017-12-06T10:41:46.427Z,3.06
2017-12-06T10:42:46.455Z,2.98
2017-12-06T10:43:46.500Z,2.97
2017-12-06T10:44:46.536Z,3.03
2017-12-06T10:45:46.649Z,3.07
2017-12-06T10:46:46.625Z,3.02
2017-12-06T10:47:46.664Z,3.10
2017-12-06T10:48:46.704Z,3.12
2017-12-06T10:49:46.745Z,3.21
2017-12-06T10:50:46.806Z,3.23
2017-12-06T10:51:46.830Z,3.18
2017-12-06T10:52:46.871Z,3.02
2017-12-06T10:53:46.937Z,3.09
2017-12-06T10:54:46.956Z,3.15
2017-12-06T10:55:46.995Z,3.07
2017-12-06T10:56:47.542Z,3.12
2017-12-06T10:57:47.078Z,3.13
2017-12-06T10:58:47.116Z,3.16
2017-12-06T10:59:47.166Z,3.07
2017-12-06T11:00:47.202Z,3.15
2017-12-06T11:01:47.265Z,3.16
2017-12-06T11:02:47.287Z,3.15
2017-12-06T11:03:47.325Z,3.13
2017-12-06T11:04:47.372Z,3.10
2017-12-06T11:05:47.415Z,3.07
2017-12-06T11:06:47.476Z,3.13
2017-12-06T11:07:47.495Z,3.21
2017-12-06T11:08:47.536Z,3.20
2017-12-06T11:09:47.595Z,3.18
2017-12-06T11:10:47.622Z,3.20
2017-12-06T11:11:47.683Z,3.18
2017-12-06T11:12:48.417Z,3.18
2017-12-06T11:13:47.750Z,3.15
2017-12-06T11:14:47.797Z,3.20
2017-12-06T11:15:47.831Z,3.24
2017-12-06T11:16:47.892Z,3.34
2017-12-06T11:17:47.912Z,3.33
2017-12-06T11:18:47.954Z,3.39
2017-12-06T11:19:48.001Z,3.34
2017-12-06T11:20:48.089Z,3.36
2017-12-06T11:21:48.102Z,3.39
2017-12-06T11:22:48.123Z,3.33
2017-12-06T11:23:48.164Z,3.40
2017-12-06T11:24:48.204Z,3.39
2017-12-06T11:25:48.282Z,3.40
2017-12-06T11:26:48.290Z,3.34
2017-12-06T11:27:48.330Z,3.36
2017-12-06T11:28:48.374Z,3.36
2017-12-06T11:29:48.415Z,3.47
2017-12-06T11:30:48.470Z,3.54
2017-12-06T11:31:48.501Z,3.53
2017-12-06T11:32:48.573Z,3.54
2017-12-06T11:33:48.581Z,3.49
2017-12-06T11:34:48.630Z,3.47
2017-12-06T11:35:48.668Z,3.58
2017-12-06T11:36:48.710Z,3.50
2017-12-06T11:37:48.789Z,3.57
2017-12-06T11:38:48.793Z,3.58
2017-12-06T11:39:48.838Z,3.54
2017-12-06T11:40:48.878Z,3.57
2017-12-06T11:41:48.920Z,3.62
2017-12-06T11:42:48.998Z,3.57
2017-12-06T11:43:49.004Z,3.65
2017-12-06T11:44:49.046Z,3.53
2017-12-06T11:45:49.094Z,3.57
2017-12-06T11:46:49.137Z,3.57
2017-12-06T11:47:49.190Z,3.54
2017-12-06T11:48:49.236Z,3.60
2017-12-06T11:49:49.259Z,3.49
2017-12-06T11:50:49.299Z,3.47
2017-12-06T11:51:49.343Z,3.49
2017-12-06T11:52:49.383Z,3.53
2017-12-06T11:53:49.444Z,3.50
2017-12-06T11:54:49.470Z,3.46
2017-12-06T11:55:49.515Z,3.50
2017-12-06T11:56:49.552Z,3.44
2017-12-06T11:57:49.595Z,3.49
2017-12-06T11:58:49.657Z,3.50
2017-12-06T11:59:49.680Z,3.60
2017-12-06T12:00:49.720Z,3.53
2017-12-06T12:01:49.764Z,3.49
2017-12-06T12:02:49.806Z,3.47
2017-12-06T12:03:49.866Z,3.47
2017-12-06T12:04:49.908Z,3.49
2017-12-06T12:05:49.940Z,3.58
2017-12-06T12:06:49.975Z,3.50
2017-12-06T12:07:50.019Z,3.60
2017-12-06T12:08:50.074Z,3.54
2017-12-06T12:09:50.102Z,3.57
2017-12-06T12:10:50.158Z,3.54
2017-12-06T12:11:50.184Z,3.54
2017-12-06T12:12:50.225Z,3.52
2017-12-06T12:13:50.268Z,3.58
2017-12-06T12:14:50.311Z,3.61
2017-12-06T12:15:50.373Z,3.53
2017-12-06T12:16:50.394Z,3.54
2017-12-06T12:17:50.457Z,3.61
2017-12-06T12:18:50.497Z,3.57
2017-12-06T12:19:50.525Z,3.54
2017-12-06T12:20:50.559Z,3.57
2017-12-06T12:21:50.607Z,3.50
2017-12-06T12:22:50.649Z,3.72
2017-12-06T12:23:50.706Z,3.65
2017-12-06T12:24:50.731Z,3.64
2017-12-06T12:25:50.774Z,3.60
2017-12-06T12:26:50.816Z,3.64
2017-12-06T12:27:50.864Z,3.67
2017-12-06T12:28:50.917Z,3.68
2017-12-06T12:29:50.941Z,3.62
2017-12-06T12:30:50.988Z,3.67
2017-12-06T12:31:51.045Z,3.72
2017-12-06T12:32:51.068Z,3.75
2017-12-06T12:33:51.112Z,3.67
2017-12-06T12:34:51.154Z,3.71
2017-12-06T12:35:51.200Z,3.61
2017-12-06T12:36:51.274Z,3.67
2017-12-06T12:37:51.279Z,3.68
2017-12-06T12:38:51.343Z,3.64
2017-12-06T12:39:51.363Z,3.53
2017-12-06T12:40:51.405Z,3.58
2017-12-06T12:41:51.465Z,3.60
2017-12-06T12:42:51.490Z,3.43
2017-12-06T12:43:51.535Z,3.53
2017-12-06T12:44:51.574Z,3.42
2017-12-06T12:45:51.616Z,3.50
2017-12-06T12:46:51.725Z,3.52
2017-12-06T12:47:51.702Z,3.46
2017-12-06T12:48:51.744Z,3.58
2017-12-06T12:49:51.785Z,3.58
2017-12-06T12:50:51.827Z,3.58
2017-12-06T12:51:51.888Z,3.62
2017-12-06T12:52:51.929Z,3.60
2017-12-06T12:53:51.956Z,3.65
2017-12-06T12:54:51.995Z,3.62
2017-12-06T12:55:52.038Z,3.61
2017-12-06T12:56:52.084Z,3.65
2017-12-06T12:57:52.141Z,3.60
2017-12-06T12:58:52.164Z,3.68
2017-12-06T12:59:52.209Z,3.71
2017-12-06T13:00:52.247Z,3.53
2017-12-06T13:01:52.287Z,3.58
2017-12-06T13:02:52.350Z,3.58
2017-12-06T13:03:52.377Z,3.57
2017-12-06T13:04:52.418Z,3.53
2017-12-06T13:05:52.463Z,3.57
2017-12-06T13:06:52.512Z,3.53
2017-12-06T13:07:52.563Z,3.53
2017-12-06T13:08:52.587Z,3.62
2017-12-06T13:09:52.627Z,3.53
2017-12-06T13:10:52.670Z,3.67
2017-12-06T13:11:52.713Z,3.50
2017-12-06T13:12:53.476Z,3.49
2017-12-06T13:13:52.799Z,3.60
2017-12-06T13:14:52.839Z,3.57
2017-12-06T13:15:52.883Z,3.54
2017-12-06T13:16:52.928Z,3.53
2017-12-06T13:17:52.983Z,3.58
2017-12-06T13:18:53.022Z,3.52
2017-12-06T13:19:53.050Z,3.54
2017-12-06T13:20:53.092Z,3.53
2017-12-06T13:21:53.135Z,3.53
2017-12-06T13:22:53.197Z,3.60
2017-12-06T13:23:53.217Z,3.49